createdAt,value
2019-06-01T00:00:55.494Z,58.10
2019-06-01T00:03:29.834Z,58.30
2019-06-01T00:06:03.614Z,58.40
2019-06-01T00:08:36.382Z,58.40
2019-06-01T00:11:09.133Z,58.40
2019-06-01T00:13:41.871Z,58.40
2019-06-01T00:16:14.728Z,58.20
2019-06-01T00:18:48.347Z,58.40
2019-06-01T00:21:21.185Z,58.30
2019-06-01T00:23:54.035Z,58.60
2019-06-01T00:26:28.472Z,58.60
2019-06-01T00:29:01.357Z,58.60
2019-06-01T00:31:34.095Z,58.50
2019-06-01T00:34:06.982Z,58.70
2019-06-01T00:36:39.771Z,58.70
2019-06-01T00:39:12.572Z,58.50
2019-06-01T00:49:09.616Z,59.10
2019-06-01T00:51:42.847Z,58.70
2019-06-01T00:54:15.699Z,58.50
2019-06-01T00:56:49.583Z,58.70
2019-06-01T00:59:22.573Z,58.80
2019-06-01T01:01:55.483Z,58.70
2019-06-01T01:04:31.422Z,59.10
2019-06-01T01:07:04.113Z,59.30
2019-06-01T01:09:37.097Z,59.10
2019-06-01T01:12:11.357Z,59.00
2019-06-01T01:14:45.153Z,59.00
2019-06-01T01:17:18.171Z,59.20
2019-06-01T01:19:51.951Z,59.10
2019-06-01T01:22:24.804Z,58.90
2019-06-01T01:24:57.668Z,59.20
2019-06-01T01:27:30.382Z,59.20
2019-06-01T01:30:03.244Z,58.90
2019-06-01T01:32:37.035Z,59.00
2019-06-01T01:35:09.920Z,59.10
2019-06-01T01:37:42.567Z,59.00
2019-06-01T01:40:15.498Z,59.10
2019-06-01T01:42:48.731Z,59.10
2019-06-01T01:45:21.686Z,58.80
2019-06-01T01:47:55.115Z,59.00
2019-06-01T01:50:28.284Z,59.20
2019-06-01T01:53:01.018Z,59.10
2019-06-01T01:55:33.856Z,59.20
2019-06-01T01:58:06.654Z,59.10
2019-06-01T02:00:44.664Z,59.20
2019-06-01T02:03:17.512Z,59.30
2019-06-01T02:05:50.794Z,59.20
2019-06-01T02:08:23.539Z,58.80
2019-06-01T02:10:57.476Z,59.00
2019-06-01T02:13:30.180Z,58.80
2019-06-01T02:16:02.935Z,58.90
2019-06-01T02:18:35.799Z,59.10
2019-06-01T02:21:08.513Z,59.10
2019-06-01T02:23:41.057Z,59.10
2019-06-01T02:26:13.980Z,59.10
2019-06-01T02:28:49.193Z,59.20
2019-06-01T02:31:39.836Z,59.20
2019-06-01T02:33:58.550Z,59.10
2019-06-01T02:36:30.807Z,59.00
2019-06-01T02:39:05.291Z,59.10
2019-06-01T02:41:38.401Z,59.30
2019-06-01T02:44:11.244Z,59.10
2019-06-01T02:46:44.237Z,59.10
2019-06-01T02:49:16.980Z,59.20
2019-06-01T02:51:49.984Z,59.40
2019-06-01T02:54:22.802Z,59.20
2019-06-01T02:56:57.880Z,59.40
2019-06-01T02:59:30.215Z,59.30
2019-06-01T03:02:08.804Z,59.20
2019-06-01T03:04:37.438Z,59.30
2019-06-01T03:07:10.668Z,59.10
2019-06-01T03:09:43.445Z,59.30
2019-06-01T03:12:16.248Z,59.00
2019-06-01T03:14:49.232Z,59.80
2019-06-01T03:17:23.851Z,59.30
2019-06-01T03:19:56.753Z,59.20
2019-06-01T03:22:29.562Z,59.30
2019-06-01T03:25:03.843Z,59.30
2019-06-01T03:27:37.292Z,59.50
2019-06-01T03:30:12.900Z,59.10
2019-06-01T03:32:45.023Z,59.20
2019-06-01T03:35:18.316Z,59.30
2019-06-01T03:37:51.254Z,59.50
2019-06-01T03:40:24.259Z,59.30
2019-06-01T03:42:57.013Z,59.30
2019-06-01T03:45:29.796Z,59.30
2019-06-01T03:48:02.671Z,59.50
2019-06-01T03:50:38.260Z,59.50
2019-06-01T03:53:12.183Z,59.50
2019-06-01T03:55:46.390Z,59.60
2019-06-01T03:58:19.226Z,59.70
2019-06-01T04:00:51.971Z,59.70
2019-06-01T04:03:24.960Z,59.70
2019-06-01T04:05:57.755Z,59.80
2019-06-01T04:08:30.562Z,59.70
2019-06-01T04:11:03.629Z,59.30
2019-06-01T04:13:36.585Z,59.10
2019-06-01T04:16:10.022Z,59.40
2019-06-01T04:18:45.877Z,59.50
2019-06-01T04:21:18.749Z,59.70
2019-06-01T04:23:51.642Z,59.50
2019-06-01T04:26:24.484Z,59.40
2019-06-01T04:28:57.327Z,59.40
2019-06-01T04:44:08.361Z,60.20
2019-06-01T04:46:42.039Z,59.50
2019-06-01T04:49:15.100Z,59.60
2019-06-01T04:51:48.815Z,59.80
2019-06-01T04:54:21.592Z,59.80
2019-06-01T04:56:54.192Z,60.00
2019-06-01T04:59:26.949Z,60.20
2019-06-01T05:01:59.709Z,60.30
2019-06-01T05:04:32.470Z,60.30
2019-06-01T05:07:05.183Z,60.50
2019-06-01T05:09:37.875Z,60.60
2019-06-01T05:12:11.397Z,60.50
2019-06-01T05:14:44.232Z,60.70
2019-06-01T05:17:16.946Z,60.80
2019-06-01T05:19:50.575Z,61.00
2019-06-01T05:28:38.328Z,61.80
2019-06-01T05:31:14.921Z,61.30
2019-06-01T05:33:45.617Z,61.50
2019-06-01T05:36:18.539Z,61.40
2019-06-01T05:38:51.271Z,61.50
2019-06-01T05:41:24.038Z,61.60
2019-06-01T05:43:56.667Z,61.60
2019-06-01T05:46:29.421Z,61.90
2019-06-01T05:49:02.262Z,61.90
2019-06-01T05:51:34.972Z,62.00
2019-06-01T05:54:07.650Z,62.10
2019-06-01T05:56:40.424Z,62.10
2019-06-01T05:59:13.912Z,62.20
2019-06-01T06:14:03.734Z,63.50
2019-06-01T06:16:36.584Z,62.70
2019-06-01T06:19:09.446Z,63.10
2019-06-01T06:21:42.444Z,63.10
2019-06-01T06:24:16.330Z,63.20
2019-06-01T06:26:49.299Z,63.30
2019-06-01T06:29:23.021Z,63.40
2019-06-01T06:31:55.923Z,63.50
2019-06-01T06:34:28.720Z,63.70
2019-06-01T06:37:01.860Z,63.70
2019-06-01T06:39:34.834Z,63.70
2019-06-01T06:42:07.727Z,63.90
2019-06-01T06:44:40.662Z,63.70
2019-06-01T06:47:14.621Z,63.80
2019-06-01T06:49:47.544Z,63.80
2019-06-01T06:52:21.471Z,63.80
2019-06-01T06:54:54.413Z,63.80
2019-06-01T06:57:27.608Z,64.10
2019-06-01T07:00:00.875Z,63.90
2019-06-01T07:02:33.756Z,64.00
2019-06-01T07:05:06.583Z,64.20
2019-06-01T07:07:39.064Z,64.70
2019-06-01T07:10:11.465Z,65.20
2019-06-01T07:12:45.037Z,64.90
2019-06-01T07:15:17.614Z,65.00
2019-06-01T07:17:50.190Z,64.90
2019-06-01T07:20:23.706Z,64.70
2019-06-01T07:22:56.269Z,64.80
2019-06-01T07:25:28.910Z,64.90
2019-06-01T07:28:01.339Z,64.80
2019-06-01T07:30:49.429Z,64.70
2019-06-01T07:33:07.946Z,64.30
2019-06-01T07:35:40.439Z,64.40
2019-06-01T07:38:13.005Z,64.40
2019-06-01T07:40:45.496Z,64.10
2019-06-01T07:43:18.005Z,64.10
2019-06-01T07:45:50.450Z,64.10
2019-06-01T07:48:23.130Z,64.10
2019-06-01T07:50:55.815Z,63.90
2019-06-01T07:53:29.422Z,63.20
2019-06-01T07:56:02.096Z,62.90
2019-06-01T07:58:34.534Z,63.20
2019-06-01T08:01:07.068Z,63.40
2019-06-01T08:03:39.416Z,63.20
2019-06-01T08:06:11.726Z,63.20
2019-06-01T08:08:44.146Z,62.70
2019-06-01T08:11:16.466Z,62.60
2019-06-01T08:13:48.989Z,62.60
2019-06-01T08:16:21.470Z,62.80
2019-06-01T08:18:53.859Z,62.80
2019-06-01T08:21:26.320Z,62.60
2019-06-01T08:23:58.714Z,62.10
2019-06-01T08:26:31.189Z,61.80
2019-06-01T08:29:04.900Z,61.30
2019-06-01T08:31:37.336Z,61.30
2019-06-01T08:34:09.797Z,61.10
2019-06-01T08:36:42.284Z,61.30
2019-06-01T08:39:14.812Z,61.30
2019-06-01T08:41:47.277Z,60.30
2019-06-01T08:44:19.831Z,60.90
2019-06-01T08:46:53.981Z,60.50
2019-06-01T08:49:27.881Z,60.20
2019-06-01T08:52:00.434Z,59.80
2019-06-01T08:54:32.790Z,60.30
2019-06-01T08:57:05.212Z,59.90
2019-06-01T08:59:37.740Z,59.80
2019-06-01T09:02:10.218Z,59.60
2019-06-01T09:04:43.785Z,58.40
2019-06-01T09:07:16.267Z,58.80
2019-06-01T09:09:48.775Z,58.70
2019-06-01T09:12:21.256Z,59.00
2019-06-01T09:14:53.779Z,58.90
2019-06-01T09:17:27.190Z,58.80
2019-06-01T09:19:59.795Z,58.80
2019-06-01T09:22:33.525Z,58.90
2019-06-01T09:25:06.345Z,58.20
2019-06-01T09:27:38.815Z,58.30
2019-06-01T09:30:12.020Z,58.40
2019-06-01T09:32:44.516Z,58.00
2019-06-01T09:35:17.028Z,57.70
2019-06-01T09:37:50.259Z,57.30
2019-06-01T09:40:22.750Z,57.20
2019-06-01T09:42:55.195Z,57.00
2019-06-01T09:45:27.890Z,56.90
2019-06-01T09:48:00.422Z,56.90
2019-06-01T09:50:33.458Z,57.10
2019-06-01T09:53:06.045Z,56.90
2019-06-01T09:55:38.560Z,57.10
2019-06-01T09:58:10.956Z,56.90
2019-06-01T10:00:44.078Z,56.20
2019-06-01T10:03:16.564Z,56.40
2019-06-01T10:06:01.480Z,56.10
2019-06-01T10:08:23.089Z,55.90
2019-06-01T10:10:55.518Z,55.80
2019-06-01T10:13:30.147Z,56.10
2019-06-01T10:16:03.418Z,55.80
2019-06-01T10:18:37.059Z,55.60
2019-06-01T10:21:11.874Z,55.60
2019-06-01T10:23:49.041Z,55.40
2019-06-01T10:26:19.108Z,55.30
2019-06-01T10:28:52.543Z,55.00
2019-06-01T10:31:25.595Z,55.40
2019-06-01T10:33:58.169Z,54.90
2019-06-01T10:36:31.885Z,54.50
2019-06-01T10:39:07.298Z,54.90
2019-06-01T10:41:41.479Z,54.90
2019-06-01T10:44:14.054Z,55.10
2019-06-01T10:46:47.043Z,54.70
2019-06-01T10:49:19.823Z,54.60
2019-06-01T10:51:52.861Z,54.70
2019-06-01T10:54:29.727Z,54.00
2019-06-01T10:57:04.271Z,53.90
2019-06-01T10:59:38.383Z,53.30
2019-06-01T11:02:11.452Z,53.30
2019-06-01T11:04:44.468Z,53.10
2019-06-01T11:07:17.545Z,53.00
2019-06-01T11:09:50.588Z,53.10
2019-06-01T11:12:23.601Z,53.10
2019-06-01T11:14:56.602Z,53.50
2019-06-01T11:17:29.578Z,53.30
2019-06-01T11:20:02.627Z,53.30
2019-06-01T11:22:35.726Z,52.70
2019-06-01T11:25:08.784Z,52.80
2019-06-01T11:27:41.998Z,53.30
2019-06-01T11:30:17.757Z,52.90
2019-06-01T11:32:50.803Z,52.70
2019-06-01T11:35:23.671Z,52.70
2019-06-01T11:37:56.718Z,52.40
2019-06-01T11:40:29.732Z,52.40
2019-06-01T11:43:02.689Z,52.80
2019-06-01T11:45:36.610Z,52.10
2019-06-01T11:48:09.556Z,52.50
2019-06-01T11:50:43.123Z,52.90
2019-06-01T11:53:16.263Z,52.60
2019-06-01T11:55:49.197Z,52.10
2019-06-01T11:58:22.010Z,51.60
2019-06-01T12:00:55.051Z,51.50
2019-06-01T12:03:28.106Z,51.00
2019-06-01T12:06:00.984Z,51.40
2019-06-01T12:08:34.446Z,51.50
2019-06-01T12:11:07.731Z,51.80
2019-06-01T12:13:40.685Z,51.40
2019-06-01T12:16:13.644Z,51.00
2019-06-01T12:18:46.957Z,51.30
2019-06-01T12:21:19.983Z,50.90
2019-06-01T12:23:53.036Z,50.80
2019-06-01T12:26:25.523Z,51.10
2019-06-01T12:28:58.394Z,51.10
2019-06-01T12:31:31.425Z,51.30
2019-06-01T12:34:04.504Z,51.00
2019-06-01T12:36:39.230Z,51.30
2019-06-01T12:39:11.060Z,51.40
2019-06-01T12:41:44.073Z,51.70
2019-06-01T12:44:17.454Z,51.30
2019-06-01T12:46:50.422Z,51.20
2019-06-01T12:49:23.522Z,51.10
2019-06-01T12:51:56.555Z,51.00
2019-06-01T12:54:29.676Z,50.80
2019-06-01T12:57:01.995Z,50.90
2019-06-01T12:59:35.030Z,51.10
2019-06-01T13:02:07.496Z,51.40
2019-06-01T13:04:40.640Z,50.40
2019-06-01T13:07:13.116Z,50.80
2019-06-01T13:09:46.132Z,50.50
2019-06-01T13:12:18.624Z,50.40
2019-06-01T13:14:52.207Z,50.80
2019-06-01T13:17:24.731Z,50.60
2019-06-01T13:19:57.704Z,50.60
2019-06-01T13:22:30.080Z,50.70
2019-06-01T13:25:03.167Z,51.00
2019-06-01T13:27:35.660Z,50.30
2019-06-01T13:30:08.399Z,50.30
2019-06-01T13:32:42.294Z,50.70
2019-06-01T13:35:14.832Z,50.70
2019-06-01T13:37:48.848Z,50.60
2019-06-01T13:40:21.462Z,50.80
2019-06-01T13:42:53.847Z,50.70
2019-06-01T13:45:26.189Z,50.90
2019-06-01T13:47:58.664Z,50.80
2019-06-01T13:50:31.139Z,51.10
2019-06-01T13:53:03.591Z,51.20
2019-06-01T13:55:36.088Z,50.50
2019-06-01T13:58:08.552Z,50.70
2019-06-01T14:00:41.043Z,50.90
2019-06-01T14:03:13.411Z,51.40
2019-06-01T14:05:46.785Z,50.80
2019-06-01T14:08:28.606Z,50.50
2019-06-01T14:10:53.329Z,50.70
2019-06-01T14:13:25.634Z,50.60
2019-06-01T14:15:58.130Z,50.10
2019-06-01T14:18:30.560Z,50.40
2019-06-01T14:21:03.132Z,50.30
2019-06-01T14:23:35.593Z,50.40
2019-06-01T14:26:08.662Z,50.40
2019-06-01T14:28:42.098Z,50.30
2019-06-01T14:31:14.504Z,49.80
2019-06-01T14:33:48.329Z,50.20
2019-06-01T14:36:20.745Z,50.00
2019-06-01T14:38:54.723Z,50.20
2019-06-01T14:41:27.388Z,50.30
2019-06-01T14:43:59.929Z,50.50
2019-06-01T14:46:32.389Z,49.70
2019-06-01T14:49:04.842Z,50.20
2019-06-01T14:51:37.347Z,51.10
2019-06-01T14:54:09.883Z,51.20
2019-06-01T14:56:42.431Z,51.40
2019-06-01T14:59:14.883Z,51.40
2019-06-01T15:01:48.145Z,51.30
2019-06-01T15:04:20.731Z,50.90
2019-06-01T15:06:54.366Z,50.50
2019-06-01T15:09:26.799Z,50.90
2019-06-01T15:11:59.284Z,51.20
2019-06-01T15:14:31.686Z,51.10
2019-06-01T15:17:04.630Z,51.60
2019-06-01T15:19:37.145Z,51.40
2019-06-01T15:22:09.559Z,51.40
2019-06-01T15:24:41.951Z,51.40
2019-06-01T15:27:14.447Z,51.30
2019-06-01T15:29:46.828Z,51.30
2019-06-01T15:32:19.305Z,51.90
2019-06-01T15:34:52.370Z,52.00
2019-06-01T15:37:24.983Z,51.80
2019-06-01T15:39:57.421Z,51.50
2019-06-01T15:42:29.910Z,51.60
2019-06-01T15:45:02.644Z,51.50
2019-06-01T15:47:36.104Z,51.40
2019-06-01T15:50:08.617Z,51.50
2019-06-01T15:52:41.105Z,51.00
2019-06-01T15:55:15.117Z,51.30
2019-06-01T15:57:47.558Z,51.90
2019-06-01T16:00:20.022Z,51.60
2019-06-01T16:02:52.822Z,50.50
2019-06-01T16:05:25.304Z,51.00
2019-06-01T16:07:57.591Z,51.20
2019-06-01T16:10:30.040Z,51.10
2019-06-01T16:13:04.305Z,51.60
2019-06-01T16:15:37.973Z,51.70
2019-06-01T16:18:10.524Z,51.40
2019-06-01T16:20:43.000Z,51.30
2019-06-01T16:23:15.478Z,50.40
2019-06-01T16:26:01.221Z,50.70
2019-06-01T16:28:22.083Z,50.70
2019-06-01T16:30:54.542Z,50.70
2019-06-01T16:33:27.025Z,51.40
2019-06-01T16:35:59.418Z,51.90
2019-06-01T16:38:32.002Z,52.10
2019-06-01T16:41:05.557Z,51.60
2019-06-01T16:43:37.950Z,51.60
2019-06-01T16:46:10.438Z,51.70
2019-06-01T16:48:42.913Z,52.50
2019-06-01T16:51:15.307Z,52.00
2019-06-01T16:53:47.872Z,52.10
2019-06-01T16:56:20.256Z,51.80
2019-06-01T16:58:52.679Z,51.90
2019-06-01T17:01:25.072Z,51.50
2019-06-01T17:03:58.537Z,51.60
2019-06-01T17:06:31.016Z,52.50
2019-06-01T17:09:05.241Z,52.50
2019-06-01T17:11:37.801Z,52.20
2019-06-01T17:14:10.294Z,52.60
2019-06-01T17:16:42.686Z,52.80
2019-06-01T17:19:15.156Z,53.00
2019-06-01T17:21:47.533Z,53.10
2019-06-01T17:24:20.030Z,53.30
2019-06-01T17:26:53.468Z,53.60
2019-06-01T17:29:25.987Z,53.80
2019-06-01T17:32:14.366Z,53.70
2019-06-01T17:34:32.718Z,52.90
2019-06-01T17:37:05.318Z,53.20
2019-06-01T17:39:37.775Z,53.30
2019-06-01T17:42:10.139Z,53.10
2019-06-01T17:44:42.609Z,52.90
2019-06-01T17:47:15.172Z,52.80
2019-06-01T17:49:47.638Z,53.00
2019-06-01T17:52:20.436Z,52.90
2019-06-01T17:54:52.929Z,53.10
2019-06-01T17:57:25.431Z,53.30
2019-06-01T17:59:57.900Z,53.40
2019-06-01T18:02:30.293Z,53.40
2019-06-01T18:05:03.960Z,53.60
2019-06-01T18:07:36.698Z,54.00
2019-06-01T18:10:10.115Z,53.80
2019-06-01T18:12:43.651Z,53.90
2019-06-01T18:15:16.174Z,54.60
2019-06-01T18:17:48.660Z,54.00
2019-06-01T18:20:21.044Z,54.30
2019-06-01T18:22:56.346Z,53.80
2019-06-01T18:25:29.712Z,53.90
2019-06-01T18:28:04.420Z,53.80
2019-06-01T18:30:36.950Z,54.10
2019-06-01T18:33:09.484Z,53.80
2019-06-01T18:35:41.957Z,53.80
2019-06-01T18:38:14.901Z,53.70
2019-06-01T18:40:47.589Z,53.90
2019-06-01T18:43:20.107Z,53.90
2019-06-01T18:45:52.497Z,54.20
2019-06-01T18:48:25.102Z,54.10
2019-06-01T18:50:57.568Z,54.10
2019-06-01T18:53:30.050Z,54.30
2019-06-01T18:56:04.014Z,54.50
2019-06-01T18:58:36.659Z,54.50
2019-06-01T19:01:10.565Z,54.50
2019-06-01T19:03:43.225Z,54.40
2019-06-01T19:06:15.935Z,54.50
2019-06-01T19:08:48.452Z,54.70
2019-06-01T19:11:32.875Z,54.90
2019-06-01T19:13:55.111Z,54.70
2019-06-01T19:16:27.611Z,54.80
2019-06-01T19:19:00.089Z,54.70
2019-06-01T19:21:32.542Z,54.50
2019-06-01T19:24:05.029Z,54.40
2019-06-01T19:26:37.499Z,54.30
2019-06-01T19:29:10.740Z,54.30
2019-06-01T19:31:43.258Z,54.40
2019-06-01T19:34:17.118Z,54.50
2019-06-01T19:36:49.702Z,54.40
2019-06-01T19:39:22.789Z,54.50
2019-06-01T19:41:55.365Z,54.50
2019-06-01T19:44:28.014Z,54.70
2019-06-01T19:47:00.497Z,54.70
2019-06-01T19:49:32.986Z,54.80
2019-06-01T19:52:05.459Z,54.90
2019-06-01T19:54:37.961Z,54.80
2019-06-01T19:57:11.745Z,54.60
2019-06-01T19:59:44.290Z,54.70
2019-06-01T20:02:29.494Z,54.80
2019-06-01T20:04:50.904Z,54.70
2019-06-01T20:07:24.384Z,54.90
2019-06-01T20:09:56.866Z,54.80
2019-06-01T20:12:29.260Z,54.70
2019-06-01T20:15:01.804Z,54.70
2019-06-01T20:17:36.390Z,54.80
2019-06-01T20:20:10.724Z,54.80
2019-06-01T20:22:43.486Z,54.90
2019-06-01T20:25:15.905Z,54.90
2019-06-01T20:27:48.465Z,54.90
2019-06-01T20:30:22.160Z,55.10
2019-06-01T20:32:54.826Z,55.30
2019-06-01T20:35:27.323Z,55.20
2019-06-01T20:37:59.654Z,55.20
2019-06-01T20:40:32.134Z,55.30
2019-06-01T20:43:04.675Z,55.20
2019-06-01T20:45:37.161Z,55.20
2019-06-01T20:48:09.751Z,55.10
2019-06-01T20:50:42.293Z,55.30
2019-06-01T20:53:16.822Z,55.30
2019-06-01T20:55:49.407Z,55.20
2019-06-01T20:58:23.320Z,55.60
2019-06-01T21:00:56.090Z,55.50
2019-06-01T21:03:28.479Z,55.50
2019-06-01T21:06:00.965Z,55.50
2019-06-01T21:08:33.338Z,55.50
2019-06-01T21:11:05.735Z,55.50
2019-06-01T21:13:38.200Z,55.60
2019-06-01T21:16:10.617Z,55.60
2019-06-01T21:18:42.995Z,55.70
2019-06-01T21:21:16.357Z,55.70
2019-06-01T21:23:48.848Z,55.70
2019-06-01T21:26:21.333Z,56.00
2019-06-01T21:28:53.707Z,55.80
2019-06-01T21:31:27.622Z,55.80
2019-06-01T21:34:00.009Z,56.10
2019-06-01T21:36:32.494Z,56.10
2019-06-01T21:39:06.788Z,56.20
2019-06-01T21:41:39.297Z,56.10
2019-06-01T21:44:11.739Z,56.40
2019-06-01T21:46:44.167Z,56.30
2019-06-01T21:49:17.555Z,56.30
2019-06-01T21:51:52.902Z,56.20
2019-06-01T21:54:24.678Z,56.20
2019-06-01T21:56:57.167Z,56.50
2019-06-01T21:59:29.617Z,56.60
2019-06-01T22:02:02.109Z,56.50
2019-06-01T22:04:34.629Z,56.40
2019-06-01T22:07:07.099Z,56.40
2019-06-01T22:09:39.630Z,56.40
2019-06-01T22:12:12.131Z,56.50
2019-06-01T22:14:44.520Z,56.60
2019-06-01T22:17:17.501Z,56.50
2019-06-01T22:19:50.950Z,56.50
2019-06-01T22:22:23.871Z,56.50
2019-06-01T22:24:56.340Z,56.50
2019-06-01T22:27:28.818Z,56.70
2019-06-01T22:30:01.193Z,56.60
2019-06-01T22:32:33.729Z,56.60
2019-06-01T22:35:06.687Z,56.70
2019-06-01T22:37:39.149Z,56.60
2019-06-01T22:40:11.596Z,56.80
2019-06-01T22:42:44.153Z,57.10
2019-06-01T22:45:16.528Z,57.30
2019-06-01T22:47:49.018Z,57.40
2019-06-01T22:50:22.635Z,57.30
2019-06-01T22:52:55.175Z,57.60
2019-06-01T22:55:28.529Z,57.50
2019-06-01T22:58:01.035Z,57.30
2019-06-01T23:00:33.480Z,57.50
2019-06-01T23:03:06.017Z,57.30
2019-06-01T23:05:38.496Z,57.40
2019-06-01T23:08:11.094Z,57.30
2019-06-01T23:10:43.605Z,57.40
2019-06-01T23:13:16.097Z,57.60
2019-06-01T23:15:48.491Z,57.60
2019-06-01T23:18:21.671Z,57.50
2019-06-01T23:20:54.118Z,57.70
2019-06-01T23:23:26.604Z,57.70
2019-06-01T23:25:58.907Z,57.60
2019-06-01T23:28:32.463Z,58.20
2019-06-01T23:31:05.843Z,57.50
2019-06-01T23:33:38.322Z,57.70
2019-06-01T23:36:10.777Z,57.60
2019-06-01T23:38:43.268Z,57.70
2019-06-01T23:41:15.653Z,57.60
2019-06-01T23:43:48.118Z,57.60
2019-06-01T23:46:20.527Z,57.60
2019-06-01T23:48:53.012Z,57.80
2019-06-01T23:51:25.487Z,57.90
2019-06-01T23:53:57.879Z,58.00
2019-06-01T23:56:30.109Z,57.90
2019-06-01T23:59:02.568Z,58.10
